Ashley, Wisconsin
Current Conditions -  °F | °C
As of 11:50 AM on Thursday 23 Oct 2014 (Local Time) from KCWA Reporting Station
Moderate Rain Moderate Rain  
Wind Chill: 38°   Ceiling: 600
Heat Index: 43°   Visibility: 3mi
Dew Point: 43°   Wind: 8mph
Humidity: 100%   Direction: 170°S
Pressure: 30.08"   Gusts: NA
Location:  44.7605°N, 89.5918°W
Report Text: KCWA 231650Z 17007KT 3SM RA BKN006 OVC013 06/06 A3008
Loading
Personal Weather Stations






























Interactive Weather Map
Tropical Storm Tracking
New forecast layout! Learn more

10-Day Weather Forecast

Advertisements
Track Severe Weather on mobile